Time;durP1;ratioP1;P1;durP2;ratioP2;P2;SDS_P1;SDS_P2;PMS_P1;PMS_P2;Temp;Humidity;BMP_temperature;BMP_pressure;BME280_temperature;BME280_humidity;BME280_pressure;Samples;Min_cycle;Max_cycle;Signal;HPM_P1;HPM_P2
2022/12/04 00:00:07;;;;;;;16.33;6.97;;;;;;;10.42;43.97;101444.63;5087713;28;20043;-61
2022/12/04 00:02:33;;;;;;;17.50;7.05;;;;;;;10.43;43.81;101441.00;5092758;28;20480;-61
2022/12/04 00:04:58;;;;;;;19.33;7.90;;;;;;;10.40;43.70;101427.84;5092330;28;20078;-61
2022/12/04 00:07:24;;;;;;;22.45;8.00;;;;;;;10.39;43.79;101436.81;5075260;28;20042;-61
2022/12/04 00:09:49;;;;;;;23.52;7.53;;;;;;;10.38;43.76;101429.78;5075041;28;20082;-60
2022/12/04 00:12:17;;;;;;;18.88;6.30;;;;;;;10.36;43.84;101431.69;5092589;28;20036;-60
2022/12/04 00:14:43;;;;;;;23.10;7.38;;;;;;;10.34;44.16;101422.94;5093560;28;20094;-61
2022/12/04 00:17:08;;;;;;;21.38;7.55;;;;;;;10.37;43.99;101436.09;5092859;28;20027;-62
2022/12/04 00:19:33;;;;;;;18.75;7.97;;;;;;;10.37;44.03;101425.38;5091593;28;20064;-61
2022/12/04 00:21:59;;;;;;;27.73;9.23;;;;;;;10.35;43.70;101430.00;5075216;28;20047;-61
2022/12/04 00:24:24;;;;;;;20.67;7.45;;;;;;;10.37;43.49;101430.75;5097194;28;20064;-61
2022/12/04 00:26:49;;;;;;;17.15;7.30;;;;;;;10.35;44.11;101435.34;5096040;28;20081;-61
2022/12/04 00:29:15;;;;;;;19.63;7.18;;;;;;;10.35;43.43;101435.34;5062178;28;20063;-61
2022/12/04 00:31:40;;;;;;;18.15;8.25;;;;;;;10.35;43.82;101427.31;5078904;28;20036;-61
2022/12/04 00:34:06;;;;;;;23.55;7.35;;;;;;;10.35;44.18;101424.66;5078393;28;20047;-61
2022/12/04 00:36:31;;;;;;;16.58;6.88;;;;;;;10.37;43.75;101422.72;5096052;28;20032;-61
2022/12/04 00:38:59;;;;;;;25.63;9.20;;;;;;;10.34;44.27;101418.44;5096554;28;20040;-62
2022/12/04 00:41:26;;;;;;;19.50;8.07;;;;;;;10.35;44.28;101413.94;5094818;28;20027;-62
2022/12/04 00:43:52;;;;;;;24.08;7.15;;;;;;;10.39;43.88;101418.94;5097277;28;20510;-61
2022/12/04 00:46:18;;;;;;;19.35;6.90;;;;;;;10.39;44.14;101418.09;5097445;28;20031;-61
2022/12/04 00:48:43;;;;;;;17.20;7.50;;;;;;;10.38;43.98;101424.44;5116126;28;20504;-61
2022/12/04 00:51:14;;;;;;;24.13;8.13;;;;;;;10.36;44.04;101423.66;5080253;28;20112;-61
2022/12/04 00:53:40;;;;;;;19.98;6.90;;;;;;;10.37;43.90;101412.00;5092235;28;20525;-61
2022/12/04 00:56:07;;;;;;;19.95;8.07;;;;;;;10.36;44.02;101411.13;5081080;28;20111;-62
2022/12/04 00:58:33;;;;;;;17.23;7.72;;;;;;;10.40;44.30;101417.13;5097230;28;20134;-61
2022/12/04 01:01:06;;;;;;;19.27;7.85;;;;;;;10.38;44.13;101414.56;5080445;28;20162;-61
2022/12/04 01:03:32;;;;;;;20.52;8.80;;;;;;;10.41;43.98;101408.97;5097504;28;20027;-61
2022/12/04 01:05:57;;;;;;;20.98;9.25;;;;;;;10.41;43.65;101408.13;5114735;28;20529;-62
2022/12/04 01:08:23;;;;;;;21.52;7.47;;;;;;;10.43;44.08;101412.41;5081258;28;20106;-61
2022/12/04 01:10:48;;;;;;;20.02;7.90;;;;;;;10.42;44.09;101413.38;5097422;28;20492;-61
2022/12/04 01:13:14;;;;;;;20.52;7.40;;;;;;;10.46;44.34;101414.00;5087346;28;20040;-62
2022/12/04 01:15:42;;;;;;;21.02;7.82;;;;;;;10.45;43.53;101412.28;5079917;28;20499;-61
2022/12/04 01:18:08;;;;;;;22.80;7.97;;;;;;;10.47;43.52;101418.38;5097430;28;20504;-61
2022/12/04 01:20:33;;;;;;;18.38;7.45;;;;;;;10.44;43.59;101407.91;5082147;28;20024;-61
2022/12/04 01:23:01;;;;;;;19.75;8.23;;;;;;;10.45;44.48;101409.59;5097988;28;20035;-61
2022/12/04 01:25:27;;;;;;;26.40;8.07;;;;;;;10.47;43.82;101413.88;5098135;28;20042;-61
2022/12/04 01:27:52;;;;;;;19.73;7.85;;;;;;;10.44;43.68;101413.25;5116721;28;20023;-62
2022/12/04 01:30:18;;;;;;;23.08;7.60;;;;;;;10.45;43.85;101412.28;5080525;28;20042;-62
2022/12/04 01:32:43;;;;;;;20.95;8.55;;;;;;;10.44;43.89;101407.91;5098481;28;20058;-61
2022/12/04 01:35:08;;;;;;;26.67;9.02;;;;;;;10.42;43.06;101410.69;5081649;28;20024;-61
2022/12/04 01:37:34;;;;;;;17.73;7.53;;;;;;;10.40;44.76;101412.63;5098030;28;20396;-61
2022/12/04 01:39:59;;;;;;;15.52;7.68;;;;;;;10.37;43.19;101410.19;5097878;28;20043;-62
2022/12/04 01:42:25;;;;;;;16.80;8.95;;;;;;;10.37;43.92;101414.66;5064570;28;20024;-62
2022/12/04 01:45:28;;;;;;;21.65;8.68;;;;;;;10.36;43.94;101415.63;5080713;28;20059;-62
2022/12/04 01:47:56;;;;;;;20.23;8.35;;;;;;;10.32;44.13;101414.16;5115766;28;20381;-61
2022/12/04 01:50:22;;;;;;;17.27;7.28;;;;;;;10.28;44.14;101410.00;5098538;28;20032;-62
2022/12/04 01:52:48;;;;;;;25.70;9.07;;;;;;;10.30;44.45;101402.72;5080286;28;20523;-62
2022/12/04 01:55:13;;;;;;;26.08;8.50;;;;;;;10.28;43.65;101396.59;5080688;28;20500;-61
2022/12/04 01:57:39;;;;;;;21.67;8.20;;;;;;;10.35;44.16;101397.88;5080205;28;20050;-61
2022/12/04 02:00:10;;;;;;;23.45;8.68;;;;;;;10.32;44.30;101392.75;5080518;28;20374;-61
2022/12/04 02:02:39;;;;;;;21.23;8.68;;;;;;;10.38;44.13;101413.72;5098106;28;20034;-61
2022/12/04 02:05:08;;;;;;;27.40;8.80;;;;;;;10.36;43.87;101400.41;5080759;28;20036;-61
2022/12/04 02:07:33;;;;;;;21.85;8.95;;;;;;;10.38;44.07;101392.28;5080338;28;20034;-61
2022/12/04 02:10:02;;;;;;;19.10;8.50;;;;;;;10.36;44.05;101399.56;5097842;28;20031;-62
2022/12/04 02:12:34;;;;;;;27.65;9.73;;;;;;;10.36;44.21;101403.09;5097101;28;20041;-61
2022/12/04 02:15:22;;;;;;;19.88;7.68;;;;;;;10.36;43.98;101404.91;5115502;28;20032;-61
2022/12/04 02:18:23;;;;;;;19.25;8.15;;;;;;;10.35;44.04;101403.22;5097310;28;20405;-61
2022/12/04 02:21:03;;;;;;;25.20;9.07;;;;;;;10.32;43.95;101398.97;5077061;28;20030;-61
2022/12/04 02:23:38;;;;;;;29.42;8.50;;;;;;;10.35;44.41;101403.22;5115910;28;20022;-61
2022/12/04 02:26:09;;;;;;;23.25;8.57;;;;;;;10.36;44.14;101404.91;5097439;28;20392;-61
2022/12/04 02:28:38;;;;;;;20.60;8.23;;;;;;;10.35;44.41;101403.22;5115239;28;20038;-61
2022/12/04 02:31:06;;;;;;;23.90;8.40;;;;;;;10.30;44.22;101383.97;5114903;28;20043;-61
2022/12/04 02:33:44;;;;;;;21.00;8.60;;;;;;;10.27;44.27;101387.72;5080175;28;20031;-61
2022/12/04 02:36:21;;;;;;;18.33;9.25;;;;;;;10.31;44.35;101396.38;5080181;28;20046;-61
2022/12/04 02:38:55;;;;;;;24.48;8.02;;;;;;;10.28;44.66;101400.13;5096997;28;20388;-61
2022/12/04 02:41:24;;;;;;;20.33;8.27;;;;;;;10.29;44.13;101407.22;5097723;28;20019;-61
2022/12/04 02:43:54;;;;;;;23.25;9.70;;;;;;;10.30;44.30;101400.03;5096911;28;20036;-61
2022/12/04 02:46:41;;;;;;;26.05;9.02;;;;;;;10.32;44.16;101393.59;5096504;28;20035;-61
2022/12/04 02:49:13;;;;;;;23.95;8.20;;;;;;;10.34;44.31;101398.81;5096827;28;20118;-61
2022/12/04 02:51:40;;;;;;;24.65;9.30;;;;;;;10.37;44.10;101395.94;5096664;28;20493;-61
2022/12/04 02:54:21;;;;;;;21.15;8.13;;;;;;;10.38;44.47;101395.84;5096573;28;20111;-62
2022/12/04 02:56:49;;;;;;;19.63;8.43;;;;;;;10.39;44.37;101394.84;5096211;28;20103;-61
2022/12/04 02:59:19;;;;;;;18.13;7.95;;;;;;;10.38;44.60;101392.28;5097050;28;20082;-62
2022/12/04 03:01:48;;;;;;;31.45;8.70;;;;;;;10.34;44.14;101391.66;5079252;28;20031;-63
2022/12/04 03:04:17;;;;;;;28.83;9.40;;;;;;;10.33;44.13;101395.28;5087247;28;20047;-61
2022/12/04 03:06:47;;;;;;;24.10;10.02;;;;;;;10.33;43.70;101399.81;5096760;28;20047;-61
2022/12/04 03:09:33;;;;;;;26.77;9.23;;;;;;;10.32;44.38;101404.31;5079575;28;20035;-61
2022/12/04 03:12:06;;;;;;;26.27;9.35;;;;;;;10.27;44.42;101397.59;5082720;28;20288;-60
2022/12/04 03:14:34;;;;;;;30.30;9.73;;;;;;;10.27;44.34;101395.75;5076688;28;20492;-61
2022/12/04 03:17:06;;;;;;;26.58;9.15;;;;;;;10.25;44.15;101395.00;5076207;28;20039;-61
2022/12/04 03:19:55;;;;;;;22.13;8.32;;;;;;;10.30;44.81;101400.03;5059335;28;20075;-61
2022/12/04 03:22:22;;;;;;;27.83;10.07;;;;;;;10.27;44.83;101387.72;5076170;28;20036;-61
2022/12/04 03:24:51;;;;;;;29.30;10.20;;;;;;;10.30;44.20;101410.75;5075435;28;20042;-61
2022/12/04 03:27:25;;;;;;;26.33;8.95;;;;;;;10.28;44.82;101412.66;5059374;28;20028;-61
2022/12/04 03:30:11;;;;;;;22.95;8.48;;;;;;;10.29;44.59;101403.69;5075971;28;20031;-61
2022/12/04 03:32:49;;;;;;;30.63;9.63;;;;;;;10.31;43.73;101399.06;5059816;28;20040;-61
2022/12/04 03:35:20;;;;;;;26.08;8.88;;;;;;;10.34;43.68;101401.50;5059018;28;20075;-62
2022/12/04 03:38:06;;;;;;;26.83;9.82;;;;;;;10.37;44.57;101404.81;5094008;28;20043;-61
2022/12/04 03:40:37;;;;;;;22.42;9.15;;;;;;;10.34;44.29;101390.78;5075632;28;20119;-61
2022/12/04 03:43:06;;;;;;;28.40;9.48;;;;;;;10.37;44.14;101401.28;5093421;28;20490;-62
2022/12/04 03:45:43;;;;;;;22.70;9.07;;;;;;;10.38;44.13;101405.69;5093920;28;20043;-61
2022/12/04 03:48:20;;;;;;;25.13;9.13;;;;;;;10.37;44.26;101406.63;5058651;28;20066;-61
2022/12/04 03:51:11;;;;;;;29.55;10.13;;;;;;;10.38;44.36;101411.91;5093074;28;20028;-61
2022/12/04 03:53:40;;;;;;;24.23;9.13;;;;;;;10.37;44.20;101404.81;5076711;28;20019;-60
2022/12/04 03:56:10;;;;;;;26.55;9.00;;;;;;;10.37;44.36;101399.47;5058922;28;20075;-61
2022/12/04 03:58:37;;;;;;;28.95;9.60;;;;;;;10.36;44.43;101400.41;5060794;28;20039;-61
2022/12/04 04:01:06;;;;;;;24.02;9.07;;;;;;;10.38;44.27;101403.00;5079530;28;20032;-61
2022/12/04 04:03:39;;;;;;;29.33;11.02;;;;;;;10.36;44.35;101395.06;5079137;28;20441;-62
2022/12/04 04:06:11;;;;;;;21.35;8.88;;;;;;;10.34;44.03;101393.47;5097499;28;20039;-61
2022/12/04 04:08:39;;;;;;;23.08;8.43;;;;;;;10.34;44.59;101393.47;5080240;28;20031;-61
2022/12/04 04:11:10;;;;;;;24.85;9.75;;;;;;;10.33;44.17;101389.94;5063081;28;20047;-61
2022/12/04 04:24:50;;;;;;;24.58;8.70;;;;;;;10.26;44.48;101388.69;5082150;28;20408;-61
2022/12/04 04:27:15;;;;;;;24.52;9.38;;;;;;;10.29;44.24;101392.97;5062660;28;20028;-61
2022/12/04 04:29:42;;;;;;;26.40;9.90;;;;;;;10.28;44.07;101391.25;5080063;28;20036;-61
2022/12/04 04:32:33;;;;;;;25.55;8.80;;;;;;;10.23;44.84;101383.56;5095504;28;20456;-62
2022/12/04 04:35:08;;;;;;;23.67;8.50;;;;;;;10.28;44.31;101392.09;5077764;28;20032;-61
2022/12/04 04:37:42;;;;;;;22.40;9.10;;;;;;;10.23;44.49;101388.06;5095975;28;20182;-61
2022/12/04 04:40:23;;;;;;;26.60;8.63;;;;;;;10.29;44.30;101387.63;5067542;28;20032;-61
2022/12/04 04:42:51;;;;;;;25.35;9.93;;;;;;;10.26;44.64;101387.84;5094485;28;20132;-61
2022/12/04 04:45:22;;;;;;;23.63;8.57;;;;;;;10.17;44.31;101362.59;5097218;28;20110;-61
2022/12/04 04:47:59;;;;;;;30.88;10.65;;;;;;;10.29;44.25;101385.78;5078891;28;20020;-62
2022/12/04 04:50:24;;;;;;;23.45;8.45;;;;;;;10.26;44.51;101379.81;5077208;28;20031;-61
2022/12/04 04:52:54;;;;;;;21.70;8.32;;;;;;;10.26;44.50;101387.84;5092845;28;20066;-61
2022/12/04 04:55:20;;;;;;;26.80;9.57;;;;;;;10.26;44.23;101386.03;5098977;28;20054;-61
2022/12/04 04:57:45;;;;;;;22.00;8.32;;;;;;;10.23;44.66;101388.06;5098558;28;20039;-61
2022/12/04 05:00:14;;;;;;;21.85;8.60;;;;;;;10.26;44.24;101387.84;5082048;28;20412;-61
2022/12/04 05:02:40;;;;;;;24.05;8.60;;;;;;;10.23;43.65;101383.56;5098258;28;20016;-61
2022/12/04 05:05:06;;;;;;;28.92;10.70;;;;;;;10.23;44.31;101383.56;5099335;28;20023;-62
2022/12/04 05:07:31;;;;;;;22.98;8.77;;;;;;;10.22;44.19;101383.66;5116864;28;20055;-62
2022/12/04 05:09:56;;;;;;;22.83;8.25;;;;;;;10.21;44.27;101381.97;5116095;28;20066;-61
2022/12/04 05:12:22;;;;;;;21.45;8.85;;;;;;;10.15;44.69;101377.06;5098661;28;20381;-61
2022/12/04 05:14:47;;;;;;;26.92;8.85;;;;;;;10.18;44.48;101374.16;5116613;28;20031;-61
2022/12/04 05:17:13;;;;;;;30.42;9.18;;;;;;;10.19;44.32;101375.88;5098935;28;20035;-61
2022/12/04 05:19:54;;;;;;;23.35;8.93;;;;;;;10.18;44.67;101368.81;5095713;28;20028;-61
2022/12/04 05:22:28;;;;;;;20.02;7.78;;;;;;;10.17;43.98;101367.09;5096384;28;20070;-61
2022/12/04 05:24:54;;;;;;;23.65;8.52;;;;;;;10.16;44.07;101370.75;5092390;28;20035;-61
2022/12/04 05:27:20;;;;;;;25.05;9.40;;;;;;;10.15;44.24;101377.06;5096023;28;20027;-61
2022/12/04 05:29:46;;;;;;;20.35;8.43;;;;;;;10.13;44.63;101366.50;5097970;28;20023;-61
2022/12/04 05:32:12;;;;;;;25.58;8.70;;;;;;;10.16;44.15;101365.41;5098777;28;20027;-61
2022/12/04 05:34:37;;;;;;;23.63;8.48;;;;;;;10.17;44.67;101372.44;5081226;28;20058;-61
2022/12/04 05:37:03;;;;;;;21.08;7.95;;;;;;;10.15;44.00;101364.53;5081435;28;20516;-61
2022/12/04 05:39:28;;;;;;;28.13;10.30;;;;;;;10.19;44.28;101367.84;5097592;28;20024;-61
2022/12/04 05:41:53;;;;;;;25.48;8.43;;;;;;;10.20;44.29;101369.53;5081019;28;20023;-61
2022/12/04 05:44:19;;;;;;;28.98;9.68;;;;;;;10.18;44.33;101367.00;5098714;28;20032;-61
2022/12/04 05:46:44;;;;;;;28.00;9.88;;;;;;;10.16;44.39;101371.59;5097859;28;20066;-61
2022/12/04 05:49:09;;;;;;;24.23;8.98;;;;;;;10.13;44.87;101369.16;5064384;28;20094;-61
2022/12/04 05:51:35;;;;;;;26.98;8.68;;;;;;;10.16;44.63;101376.09;5080846;28;20035;-61
2022/12/04 05:54:00;;;;;;;25.00;8.85;;;;;;;10.15;44.66;101367.22;5081333;28;20511;-61
2022/12/04 05:56:26;;;;;;;25.20;8.05;;;;;;;10.09;44.32;101361.41;5098430;28;20031;-61
2022/12/04 05:58:51;;;;;;;26.38;8.82;;;;;;;10.11;44.54;101365.69;5080516;28;20040;-60
2022/12/04 06:01:19;;;;;;;25.25;9.05;;;;;;;10.14;44.34;101361.97;5080094;28;20039;-61
2022/12/04 06:03:45;;;;;;;25.90;9.55;;;;;;;10.13;44.32;101365.63;5097401;28;20602;-61
2022/12/04 06:06:22;;;;;;;25.27;9.02;;;;;;;10.13;44.53;101366.50;5064108;28;20111;-61
2022/12/04 06:08:53;;;;;;;33.65;9.48;;;;;;;10.08;44.56;101359.72;5097549;28;20026;-61
2022/12/04 06:11:24;;;;;;;28.35;9.57;;;;;;;10.09;44.31;101356.06;5097908;28;20024;-61
2022/12/04 06:13:50;;;;;;;22.58;8.25;;;;;;;10.06;44.55;101359.81;5097176;28;20104;-61
2022/12/04 06:16:21;;;;;;;21.65;8.02;;;;;;;10.05;44.32;101359.97;5097785;28;20024;-61
2022/12/04 06:18:55;;;;;;;27.42;8.95;;;;;;;10.05;44.34;101376.00;5080080;28;20043;-61
2022/12/04 06:21:23;;;;;;;19.15;8.13;;;;;;;10.02;44.27;101376.22;5096704;28;20023;-62
2022/12/04 06:23:50;;;;;;;24.10;8.23;;;;;;;10.01;44.40;101371.84;5096857;28;20026;-62
2022/12/04 06:26:15;;;;;;;25.73;9.13;;;;;;;10.02;44.22;101381.59;5098146;28;20043;-61
2022/12/04 06:28:41;;;;;;;26.80;9.57;;;;;;;10.03;44.71;101375.25;5096848;28;20038;-61
2022/12/04 06:31:09;;;;;;;23.30;9.07;;;;;;;10.02;44.51;101381.59;5096936;28;20028;-61
2022/12/04 06:33:35;;;;;;;25.88;9.05;;;;;;;10.00;44.58;101380.81;5079834;28;20062;-60
2022/12/04 06:36:05;;;;;;;28.02;9.43;;;;;;;9.99;44.40;101381.81;5097296;28;20433;-61
2022/12/04 06:38:31;;;;;;;19.25;8.75;;;;;;;9.91;44.70;101393.91;5098039;28;20019;-61
2022/12/04 06:40:56;;;;;;;26.77;9.05;;;;;;;9.89;44.57;101390.50;5097411;28;20024;-62
2022/12/04 06:43:22;;;;;;;22.98;9.35;;;;;;;9.87;44.35;101391.56;5079637;28;20047;-61
2022/12/04 06:45:48;;;;;;;19.17;8.32;;;;;;;9.88;44.85;101409.34;5097003;28;20431;-61
2022/12/04 06:48:13;;;;;;;20.10;9.35;;;;;;;9.84;44.12;101402.50;5096883;28;20032;-61
2022/12/04 06:50:39;;;;;;;25.00;8.40;;;;;;;9.74;44.41;101390.75;5096311;28;20098;-62
2022/12/04 06:53:04;;;;;;;29.55;9.77;;;;;;;9.75;44.60;101397.81;5097358;28;20050;-60
2022/12/04 06:55:30;;;;;;;22.92;8.70;;;;;;;9.71;44.46;101405.22;5096538;28;20028;-61
2022/12/04 06:57:55;;;;;;;29.25;9.02;;;;;;;9.69;44.20;101404.44;5096532;28;20027;-61
2022/12/04 07:00:21;;;;;;;22.30;8.45;;;;;;;9.64;44.64;101406.59;5096059;28;20473;-61
2022/12/04 07:02:46;;;;;;;27.10;9.00;;;;;;;9.60;44.18;101402.44;5079503;28;20031;-62
2022/12/04 07:05:11;;;;;;;25.33;8.57;;;;;;;9.60;44.21;101410.47;5096797;28;20112;-61
2022/12/04 07:07:37;;;;;;;27.17;9.70;;;;;;;9.55;44.09;101411.75;5078923;28;20036;-61
2022/12/04 07:10:03;;;;;;;24.65;9.05;;;;;;;9.52;44.19;101423.50;5114315;28;20066;-61
2022/12/04 07:12:29;;;;;;;23.65;8.60;;;;;;;9.47;44.19;101419.44;5078747;28;20027;-61
2022/12/04 07:14:54;;;;;;;30.27;8.52;;;;;;;9.44;44.42;101408.94;5062986;28;20050;-62
2022/12/04 07:17:19;;;;;;;23.40;8.88;;;;;;;9.48;44.62;101411.31;5096845;28;20034;-61
2022/12/04 07:19:45;;;;;;;26.92;9.65;;;;;;;9.48;44.11;101415.81;5114087;28;20084;-62
2022/12/04 07:22:10;;;;;;;26.92;9.32;;;;;;;9.48;44.40;101418.47;5079387;28;20035;-62
2022/12/04 07:24:38;;;;;;;25.05;7.88;;;;;;;9.45;44.86;101414.22;5096198;28;20455;-62
2022/12/04 07:27:04;;;;;;;21.40;7.85;;;;;;;9.42;43.96;101410.88;5096857;28;20032;-61
2022/12/04 07:29:30;;;;;;;20.40;8.40;;;;;;;9.45;44.10;101416.03;5079855;28;20481;-62
2022/12/04 07:31:56;;;;;;;17.00;8.13;;;;;;;9.42;44.36;101411.75;5114152;28;20119;-61
2022/12/04 07:34:21;;;;;;;21.27;8.98;;;;;;;9.44;44.15;101420.50;5114721;28;20118;-62
2022/12/04 07:36:46;;;;;;;17.02;8.13;;;;;;;9.43;44.77;101418.81;5096543;28;20031;-61
2022/12/04 07:39:12;;;;;;;23.88;8.27;;;;;;;9.46;44.34;101423.09;5086275;28;20031;-61
2022/12/04 07:41:37;;;;;;;32.17;8.93;;;;;;;9.46;44.28;101434.66;5059610;28;20028;-60
2022/12/04 07:44:03;;;;;;;24.02;9.15;;;;;;;9.48;44.26;101431.84;5075870;28;20040;-61
2022/12/04 07:46:28;;;;;;;24.35;7.95;;;;;;;9.44;43.89;101422.31;5075621;28;20036;-61
2022/12/04 07:48:55;;;;;;;21.05;7.95;;;;;;;9.46;44.61;101434.66;5075530;28;20456;-63
2022/12/04 07:51:23;;;;;;;27.63;8.32;;;;;;;9.45;44.82;101432.94;5058619;28;20078;-63
2022/12/04 07:53:49;;;;;;;21.73;8.18;;;;;;;9.44;44.74;101433.88;5075582;28;20590;-60
2022/12/04 07:56:15;;;;;;;30.73;9.13;;;;;;;9.44;44.79;101433.88;5076425;28;20527;-61
2022/12/04 07:58:40;;;;;;;20.13;7.53;;;;;;;9.46;44.38;101437.31;5075596;28;20036;-60
2022/12/04 08:01:13;;;;;;;21.65;7.97;;;;;;;9.46;44.86;101444.47;5075670;28;20151;-61
2022/12/04 08:03:40;;;;;;;20.98;7.65;;;;;;;9.46;44.27;101439.13;5075647;28;20397;-61
2022/12/04 08:06:06;;;;;;;19.65;7.40;;;;;;;9.42;44.71;101433.13;5058997;28;20035;-62
2022/12/04 08:08:32;;;;;;;24.27;8.50;;;;;;;9.45;44.71;101438.28;5076207;28;20020;-61
2022/12/04 08:10:58;;;;;;;30.75;8.00;;;;;;;9.45;44.54;101442.75;5075504;28;20025;-60
2022/12/04 08:13:23;;;;;;;25.02;8.48;;;;;;;9.50;44.23;101449.50;5059294;28;20043;-61
2022/12/04 08:15:49;;;;;;;18.30;7.68;;;;;;;9.52;44.90;101444.88;5059376;28;20036;-62
2022/12/04 08:18:14;;;;;;;19.38;7.88;;;;;;;9.52;44.55;101434.19;5059157;28;20039;-63
2022/12/04 08:20:39;;;;;;;23.33;8.13;;;;;;;9.56;44.50;101435.69;5058323;28;20024;-61
2022/12/04 08:23:05;;;;;;;17.85;7.85;;;;;;;9.58;44.46;101440.94;5075845;28;20038;-63
2022/12/04 08:25:30;;;;;;;16.95;6.43;;;;;;;9.60;44.26;101437.22;5075271;28;20070;-61
2022/12/04 08:27:56;;;;;;;20.08;7.10;;;;;;;9.60;44.28;101442.56;5075468;28;20134;-60
2022/12/04 08:30:21;;;;;;;22.75;7.82;;;;;;;9.62;44.94;101437.94;5041704;28;20382;-62
2022/12/04 08:32:47;;;;;;;19.88;7.50;;;;;;;9.63;45.28;101431.63;5058330;28;20154;-60
2022/12/04 08:35:12;;;;;;;17.48;6.68;;;;;;;9.61;44.80;101436.22;5094408;28;20063;-62
2022/12/04 08:37:38;;;;;;;25.30;8.57;;;;;;;9.62;44.98;101432.59;5075367;28;20028;-60
2022/12/04 08:40:03;;;;;;;22.90;7.95;;;;;;;9.61;44.69;101438.91;5058525;28;20500;-64
2022/12/04 08:42:29;;;;;;;20.83;7.07;;;;;;;9.65;44.76;101439.56;5075146;28;20032;-63
2022/12/04 08:44:54;;;;;;;20.63;6.70;;;;;;;9.65;45.11;101440.41;5070601;28;20046;-63
2022/12/04 08:47:19;;;;;;;20.02;7.75;;;;;;;9.65;44.57;101440.41;5110424;28;20058;-62
2022/12/04 08:49:45;;;;;;;21.48;8.00;;;;;;;9.68;44.55;101439.34;5115593;28;20048;-63
2022/12/04 08:52:10;;;;;;;21.92;7.88;;;;;;;9.69;45.29;101428.50;5080789;28;20036;-64
2022/12/04 08:54:35;;;;;;;22.98;6.68;;;;;;;9.72;44.62;101436.31;5063795;28;20054;-61
2022/12/04 08:57:01;;;;;;;23.00;6.80;;;;;;;9.73;44.95;101424.66;5079837;28;20032;-61
2022/12/04 08:59:27;;;;;;;18.35;7.10;;;;;;;9.71;44.86;101412.38;5093075;28;20066;-61
2022/12/04 09:01:52;;;;;;;17.77;6.55;;;;;;;9.75;44.53;101425.41;5052045;28;20029;-60
2022/12/04 09:04:18;;;;;;;17.08;6.93;;;;;;;9.76;44.74;101411.09;5055074;28;20055;-61
2022/12/04 09:06:43;;;;;;;16.98;6.85;;;;;;;9.82;44.99;101415.13;5067473;28;20085;-63
2022/12/04 09:09:09;;;;;;;15.75;7.10;;;;;;;9.85;44.69;101410.41;5097730;28;20082;-60
2022/12/04 09:11:34;;;;;;;25.60;7.95;;;;;;;9.90;44.75;101412.75;5070138;28;20126;-62
2022/12/04 09:14:00;;;;;;;21.08;6.90;;;;;;;9.94;44.16;101423.13;5070594;28;20485;-60
2022/12/04 09:16:26;;;;;;;19.45;8.50;;;;;;;9.92;44.20;101411.69;5070318;28;20512;-60
2022/12/04 09:18:52;;;;;;;22.38;7.28;;;;;;;9.98;44.46;101426.44;5055384;28;20036;-61
2022/12/04 09:21:19;;;;;;;18.92;7.25;;;;;;;10.01;44.80;101420.00;5071558;28;20552;-60
2022/12/04 09:23:44;;;;;;;18.70;7.18;;;;;;;10.02;44.34;101417.25;5050736;28;20038;-61
2022/12/04 09:26:21;;;;;;;17.83;6.82;;;;;;;10.06;44.44;101428.56;5073808;28;20524;-61
2022/12/04 09:28:47;;;;;;;23.95;7.75;;;;;;;10.09;44.32;101434.53;5100530;28;20031;-60
2022/12/04 09:31:12;;;;;;;14.77;6.10;;;;;;;10.11;44.57;101435.28;5086348;28;20516;-60
2022/12/04 09:33:38;;;;;;;13.57;5.68;;;;;;;10.10;44.68;101430.91;5104094;28;20082;-61
2022/12/04 09:36:04;;;;;;;16.70;6.38;;;;;;;10.12;44.91;101438.81;5106250;28;20080;-61
2022/12/04 09:38:30;;;;;;;18.98;7.22;;;;;;;10.09;44.43;101433.69;5105824;28;20028;-61
2022/12/04 09:41:04;;;;;;;14.80;7.03;;;;;;;10.15;44.36;101433.28;5052775;28;20041;-61
2022/12/04 09:43:41;;;;;;;17.77;5.90;;;;;;;10.15;44.46;101428.78;5096129;28;20036;-61
2022/12/04 09:46:22;;;;;;;15.48;6.32;;;;;;;10.12;44.23;101428.13;5097303;28;20028;-61
2022/12/04 09:48:48;;;;;;;19.52;6.45;;;;;;;10.16;43.90;101435.00;5084360;28;20386;-60
2022/12/04 09:51:17;;;;;;;11.77;5.28;;;;;;;10.17;44.24;101442.91;5059765;28;20040;-61
2022/12/04 09:53:56;;;;;;;11.68;4.97;;;;;;;10.19;44.63;101440.13;5050361;28;20032;-61
2022/12/04 09:56:25;;;;;;;12.50;5.20;;;;;;;10.21;44.17;101446.22;5052857;28;20047;-61
2022/12/04 09:59:03;;;;;;;14.88;5.75;;;;;;;10.19;44.01;101440.13;5068908;28;20048;-61
2022/12/04 10:01:38;;;;;;;12.10;4.88;;;;;;;10.21;44.77;101446.22;5093020;28;20028;-61
2022/12/04 10:04:03;;;;;;;10.52;4.75;;;;;;;10.26;44.32;101452.09;5088328;28;20035;-61
2022/12/04 10:06:36;;;;;;;12.38;4.68;;;;;;;10.27;44.26;101451.13;5096517;28;20028;-61
2022/12/04 10:09:10;;;;;;;12.52;5.13;;;;;;;10.29;44.21;101442.03;5087080;28;20039;-61
2022/12/04 10:11:48;;;;;;;10.43;4.20;;;;;;;10.31;44.06;101452.59;5077763;28;20078;-62
2022/12/04 10:14:41;;;;;;;16.70;5.30;;;;;;;10.31;43.96;101449.94;5076955;28;20051;-61
2022/12/04 10:17:26;;;;;;;10.20;5.03;;;;;;;10.32;44.05;101446.28;5095577;28;20095;-61
2022/12/04 10:20:09;;;;;;;9.82;4.43;;;;;;;10.34;44.04;101444.34;5077089;28;20036;-62
2022/12/04 10:23:01;;;;;;;12.70;5.88;;;;;;;10.31;44.37;101434.72;5094298;28;20505;-61
2022/12/04 10:25:27;;;;;;;13.07;5.45;;;;;;;10.34;43.95;101441.66;5094709;28;20036;-62
2022/12/04 10:28:16;;;;;;;15.02;6.15;;;;;;;10.35;44.42;101436.22;5093681;28;20039;-62
2022/12/04 10:30:42;;;;;;;13.05;5.78;;;;;;;10.32;43.90;101431.09;5077375;28;20040;-61
2022/12/04 10:33:17;;;;;;;13.23;5.90;;;;;;;10.26;44.16;101428.00;5095062;28;20463;-61
2022/12/04 10:35:44;;;;;;;15.40;5.38;;;;;;;10.26;44.08;101436.03;5094034;28;20032;-61
2022/12/04 10:38:39;;;;;;;11.18;4.93;;;;;;;10.23;44.21;101430.91;5093848;28;20031;-61
2022/12/04 10:41:23;;;;;;;11.27;5.13;;;;;;;10.20;44.28;101420.41;5068999;28;20488;-61
2022/12/04 10:43:49;;;;;;;15.02;6.65;;;;;;;10.21;43.60;101427.47;5076794;28;20028;-61
2022/12/04 10:46:19;;;;;;;11.35;5.13;;;;;;;10.17;43.94;101415.28;5076599;28;20516;-61
2022/12/04 10:48:47;;;;;;;11.20;5.57;;;;;;;10.18;43.86;101417.00;5093351;28;20050;-62
2022/12/04 10:51:18;;;;;;;13.80;5.18;;;;;;;10.20;44.24;101415.06;5076400;28;20051;-61
2022/12/04 10:53:48;;;;;;;12.52;4.25;;;;;;;10.20;43.95;101415.91;5094671;28;20122;-62
2022/12/04 10:56:20;;;;;;;13.40;5.70;;;;;;;10.21;44.12;101422.13;5094687;28;20560;-61
2022/12/04 10:59:01;;;;;;;14.75;5.82;;;;;;;10.21;43.94;101427.47;5077539;28;20054;-62
2022/12/04 11:01:31;;;;;;;16.10;5.75;;;;;;;10.21;43.76;101425.66;5059008;28;20068;-62
2022/12/04 11:04:07;;;;;;;11.73;5.28;;;;;;;10.20;44.06;101420.41;5075794;28;20028;-61
2022/12/04 11:06:33;;;;;;;11.23;4.97;;;;;;;10.16;43.88;101413.59;5094573;28;20036;-62
2022/12/04 11:09:00;;;;;;;13.60;5.53;;;;;;;10.15;43.43;101414.53;5095998;28;20039;-62
2022/12/04 11:11:29;;;;;;;15.35;6.07;;;;;;;10.15;43.75;101427.94;5079966;28;20085;-61
2022/12/04 11:14:03;;;;;;;10.75;5.85;;;;;;;10.14;44.15;101436.91;5079974;28;20444;-61
2022/12/04 11:16:38;;;;;;;11.18;5.88;;;;;;;10.14;44.14;101432.41;5112511;28;20035;-61
2022/12/04 11:19:21;;;;;;;10.35;5.43;;;;;;;10.14;44.21;101428.88;5079287;28;20463;-61
2022/12/04 11:21:47;;;;;;;12.88;6.38;;;;;;;10.10;43.61;101414.00;5096348;28;20114;-61
2022/12/04 11:24:21;;;;;;;13.18;6.05;;;;;;;10.05;44.36;101419.66;5114288;28;20437;-61
2022/12/04 11:26:47;;;;;;;11.95;5.90;;;;;;;10.05;43.76;101405.44;5114114;28;20019;-61
2022/12/04 11:29:15;;;;;;;13.02;6.30;;;;;;;10.05;44.29;101416.97;5079592;28;20031;-62
2022/12/04 11:31:40;;;;;;;12.25;5.45;;;;;;;10.04;43.79;101409.09;5096471;28;20036;-61
2022/12/04 11:34:08;;;;;;;13.45;5.88;;;;;;;10.04;43.89;101404.59;5079027;28;20036;-61
2022/12/04 11:36:39;;;;;;;12.13;5.95;;;;;;;10.03;43.46;101404.69;5096065;28;20035;-61
2022/12/04 11:39:10;;;;;;;11.80;5.50;;;;;;;10.04;44.08;101398.38;5096656;28;20043;-61